Time;durP1;ratioP1;P1;durP2;ratioP2;P2;SDS_P1;SDS_P2;PMS_P1;PMS_P2;Temp;Humidity;BMP_temperature;BMP_pressure;BME280_temperature;BME280_humidity;BME280_pressure;Samples;Min_cycle;Max_cycle;Signal;HPM_P1;HPM_P2
2023/04/06 00:00:14;;;;;;;7.70;5.03;;;;;;;3.49;44.98;101739.91;4991839;28;97060;-51
2023/04/06 00:02:39;;;;;;;47.70;20.37;;;;;;;3.48;45.18;101738.34;4991058;28;97396;-50
2023/04/06 00:05:05;;;;;;;29.80;13.20;;;;;;;3.45;45.14;101736.47;4991512;28;97143;-50
2023/04/06 00:07:33;;;;;;;19.67;10.47;;;;;;;3.43;45.08;101739.59;4991710;28;96877;-50
2023/04/06 00:09:58;;;;;;;19.60;7.70;;;;;;;3.42;45.24;101735.34;4994779;28;97163;-50
2023/04/06 00:12:24;;;;;;;8.07;5.30;;;;;;;3.36;45.16;101737.03;4996390;28;98140;-50
2023/04/06 00:14:49;;;;;;;6.47;4.43;;;;;;;3.29;45.23;101730.94;4991811;28;97622;-49
2023/04/06 00:17:15;;;;;;;4.90;4.00;;;;;;;3.23;45.34;101732.59;4992191;28;97072;-51
2023/04/06 00:19:41;;;;;;;3.53;3.07;;;;;;;3.19;45.37;101734.63;4990861;28;96656;-50
2023/04/06 00:22:06;;;;;;;6.13;5.37;;;;;;;3.17;45.66;101739.69;4994982;28;97300;-50
2023/04/06 00:24:32;;;;;;;5.47;4.20;;;;;;;3.15;45.46;101728.44;4993165;28;97111;-50
2023/04/06 00:26:57;;;;;;;3.80;3.50;;;;;;;3.12;45.66;101727.34;4993623;28;97381;-51
2023/04/06 00:29:22;;;;;;;3.77;3.27;;;;;;;3.08;45.37;101728.59;4993044;28;96981;-51
2023/04/06 00:31:48;;;;;;;4.33;3.93;;;;;;;3.04;45.53;101723.19;4991313;28;97364;-52
2023/04/06 00:34:15;;;;;;;4.60;3.90;;;;;;;3.02;45.84;101729.06;4996031;28;97017;-49
2023/04/06 00:36:41;;;;;;;3.27;3.07;;;;;;;3.01;45.75;101732.94;4993266;28;97144;-51
2023/04/06 00:39:06;;;;;;;2.83;2.63;;;;;;;2.99;45.69;101723.69;4992433;28;96830;-51
2023/04/06 00:41:31;;;;;;;5.20;3.37;;;;;;;2.99;45.78;101723.69;4993053;28;96812;-49
2023/04/06 00:43:57;;;;;;;7.33;4.83;;;;;;;2.93;46.02;101745.13;4994813;28;97064;-51
2023/04/06 00:46:22;;;;;;;4.87;3.87;;;;;;;2.92;46.18;101729.22;4991308;28;97409;-50
2023/04/06 00:48:48;;;;;;;3.70;3.40;;;;;;;2.86;46.11;101720.03;4996176;28;96783;-50
2023/04/06 00:51:13;;;;;;;3.80;3.50;;;;;;;2.83;46.22;101716.16;4993293;28;97364;-50
2023/04/06 00:53:39;;;;;;;4.23;3.60;;;;;;;2.85;46.19;101727.41;4993655;28;101670;-52
2023/04/06 00:56:04;;;;;;;3.93;3.50;;;;;;;2.82;46.08;101708.41;4993157;28;96975;-51
2023/04/06 00:58:30;;;;;;;4.97;3.83;;;;;;;2.78;46.16;101711.19;4994770;28;96801;-49
2023/04/06 01:00:55;;;;;;;5.23;3.87;;;;;;;2.77;46.11;101715.13;4992104;28;96984;-49
2023/04/06 01:03:21;;;;;;;5.70;4.03;;;;;;;2.76;46.42;101704.63;4991699;28;97162;-51
2023/04/06 01:05:46;;;;;;;3.97;3.43;;;;;;;2.74;46.32;101713.22;4997265;28;96972;-52
2023/04/06 01:08:13;;;;;;;3.17;2.93;;;;;;;2.70;46.26;101698.91;4996072;28;97060;-54
2023/04/06 01:10:38;;;;;;;2.87;2.67;;;;;;;2.68;46.61;101697.78;4995889;28;97118;-51
2023/04/06 01:13:04;;;;;;;4.20;3.80;;;;;;;2.66;46.48;101692.78;4994635;28;97900;-54
2023/04/06 01:15:30;;;;;;;2.87;2.67;;;;;;;2.63;46.36;101701.75;4997904;28;97135;-52
2023/04/06 01:17:55;;;;;;;4.53;3.23;;;;;;;2.60;46.57;101697.13;4997237;28;98805;-49
2023/04/06 01:20:21;;;;;;;4.03;3.73;;;;;;;2.55;46.49;101691.41;5000822;28;97151;-50
2023/04/06 01:22:46;;;;;;;3.83;3.50;;;;;;;2.54;46.72;101687.13;5001879;28;96820;-50
2023/04/06 01:25:11;;;;;;;4.37;3.70;;;;;;;2.49;46.93;101688.34;4995348;28;97419;-49
2023/04/06 01:27:37;;;;;;;4.50;3.50;;;;;;;2.48;46.88;101686.84;4995740;28;97382;-51
2023/04/06 01:30:03;;;;;;;4.23;3.43;;;;;;;2.46;46.95;101686.47;4995330;28;97841;-51
2023/04/06 01:32:28;;;;;;;3.60;3.30;;;;;;;2.46;46.66;101689.19;4995925;28;97251;-52
2023/04/06 01:34:54;;;;;;;3.57;3.27;;;;;;;2.43;46.96;101681.88;4994357;28;97051;-51
2023/04/06 01:37:20;;;;;;;3.67;3.37;;;;;;;2.42;46.99;101683.06;4996050;28;96847;-48
2023/04/06 01:39:46;;;;;;;4.43;3.67;;;;;;;2.41;47.01;101686.16;4995611;28;97645;-49
2023/04/06 01:42:11;;;;;;;4.40;3.73;;;;;;;2.42;46.93;101688.50;4996772;28;97205;-49
2023/04/06 01:44:37;;;;;;;3.80;3.40;;;;;;;2.34;46.91;101702.59;4994286;28;97131;-49
2023/04/06 01:47:02;;;;;;;3.33;3.10;;;;;;;2.38;46.83;101685.03;4996881;28;97290;-49
2023/04/06 01:49:27;;;;;;;4.40;3.27;;;;;;;2.36;47.27;101687.41;4994207;28;96952;-49
2023/04/06 01:51:54;;;;;;;4.47;3.70;;;;;;;2.35;47.27;101685.88;4994735;28;97173;-50
2023/04/06 01:54:19;;;;;;;4.80;3.70;;;;;;;2.31;47.02;101684.38;4996148;28;97055;-52
2023/04/06 01:56:45;;;;;;;3.90;3.60;;;;;;;2.27;47.51;101684.44;4994991;28;97252;-49
2023/04/06 01:59:11;;;;;;;4.70;4.13;;;;;;;2.26;47.33;101682.91;4996082;28;97283;-49
2023/04/06 02:01:36;;;;;;;6.30;4.10;;;;;;;2.24;47.62;101682.53;4993444;28;96843;-50
2023/04/06 02:04:01;;;;;;;4.67;4.03;;;;;;;2.23;47.08;101679.06;4995740;28;97138;-50
2023/04/06 02:06:27;;;;;;;4.37;3.90;;;;;;;2.20;47.22;101682.59;4995362;28;96943;-50
2023/04/06 02:08:52;;;;;;;3.97;3.27;;;;;;;2.18;47.22;101676.03;4993483;28;97221;-50
2023/04/06 02:11:18;;;;;;;4.90;4.50;;;;;;;2.14;47.31;101678.03;4992865;28;97209;-49
2023/04/06 02:13:43;;;;;;;3.93;3.47;;;;;;;2.07;47.66;101668.06;4996185;28;97323;-49
2023/04/06 02:16:09;;;;;;;4.60;4.00;;;;;;;2.04;47.35;101668.09;4996121;28;96813;-52
2023/04/06 02:18:34;;;;;;;4.40;3.70;;;;;;;2.03;47.50;101677.41;4995327;28;97308;-51
2023/04/06 02:21:00;;;;;;;6.77;4.17;;;;;;;2.01;47.56;101668.91;4993973;28;96743;-49
2023/04/06 02:23:26;;;;;;;6.07;4.40;;;;;;;2.00;47.56;101668.16;4993454;28;96973;-49
2023/04/06 02:25:52;;;;;;;5.30;4.80;;;;;;;2.00;47.56;101675.50;4996124;28;97027;-48
2023/04/06 02:28:17;;;;;;;6.60;4.13;;;;;;;2.02;47.79;101662.28;4995787;28;97122;-50
2023/04/06 02:30:42;;;;;;;5.33;3.90;;;;;;;2.02;47.74;101671.22;4994542;28;96968;-49
2023/04/06 02:33:08;;;;;;;4.70;4.07;;;;;;;2.01;47.64;101666.22;4994915;28;96646;-51
2023/04/06 02:35:33;;;;;;;4.80;3.83;;;;;;;1.97;47.85;101660.81;4994400;28;97252;-52
2023/04/06 02:37:59;;;;;;;4.20;3.80;;;;;;;1.96;47.65;101682.94;4994115;28;97637;-50
2023/04/06 02:40:24;;;;;;;6.70;4.63;;;;;;;1.94;48.04;101663.56;4993859;28;97512;-48
2023/04/06 02:42:49;;;;;;;6.17;4.20;;;;;;;1.91;47.75;101650.81;4993111;28;97143;-51
2023/04/06 02:45:15;;;;;;;5.70;4.13;;;;;;;1.91;48.23;101661.66;4994843;28;97214;-49
2023/04/06 02:47:41;;;;;;;4.83;4.30;;;;;;;1.87;47.99;101655.53;4994071;28;97944;-50
2023/04/06 02:50:07;;;;;;;7.90;4.00;;;;;;;1.88;48.14;101662.50;4993864;28;96883;-52
2023/04/06 02:52:32;;;;;;;7.40;4.47;;;;;;;1.88;47.97;101667.94;4996911;28;97096;-51
2023/04/06 02:54:58;;;;;;;5.80;4.53;;;;;;;1.88;48.25;101659.78;4992012;28;97228;-48
2023/04/06 02:57:23;;;;;;;4.17;3.77;;;;;;;1.88;48.23;101660.53;4996335;28;97308;-49
2023/04/06 02:59:48;;;;;;;4.23;3.83;;;;;;;1.90;47.93;101660.91;4992951;28;96719;-52
2023/04/06 03:02:14;;;;;;;5.20;4.20;;;;;;;1.91;48.34;101664.38;4994019;28;97303;-50
2023/04/06 03:04:39;;;;;;;6.33;5.03;;;;;;;1.92;48.12;101652.38;4995237;28;97006;-51
2023/04/06 03:07:05;;;;;;;6.03;4.70;;;;;;;1.91;47.99;101654.31;4991962;28;97049;-51
2023/04/06 03:09:30;;;;;;;5.60;4.47;;;;;;;1.86;48.07;101653.97;4996427;28;97122;-49
2023/04/06 03:11:55;;;;;;;4.27;3.87;;;;;;;1.83;48.22;101655.59;4993365;28;97166;-49
2023/04/06 03:14:22;;;;;;;5.70;4.23;;;;;;;1.83;48.21;101652.88;4994740;28;97142;-52
2023/04/06 03:16:48;;;;;;;4.17;3.63;;;;;;;1.83;48.17;101652.09;4995805;28;97040;-51
2023/04/06 03:19:13;;;;;;;4.87;4.13;;;;;;;1.82;48.17;101645.13;4992815;28;97292;-49
2023/04/06 03:21:39;;;;;;;4.67;4.23;;;;;;;1.83;48.30;101639.31;4992934;28;97903;-50
2023/04/06 03:24:05;;;;;;;6.47;3.87;;;;;;;1.84;48.33;101651.69;4991149;28;96969;-53
2023/04/06 03:26:30;;;;;;;4.20;3.57;;;;;;;1.84;48.21;101650.91;4996439;28;97407;-51
2023/04/06 03:28:56;;;;;;;8.33;4.30;;;;;;;1.80;48.38;101650.19;4996297;28;96566;-49
2023/04/06 03:31:21;;;;;;;6.83;4.20;;;;;;;1.79;48.60;101651.38;4998045;28;96782;-50
2023/04/06 03:33:46;;;;;;;4.23;3.83;;;;;;;1.78;48.29;101652.53;4993811;28;97248;-50
2023/04/06 03:36:12;;;;;;;5.07;4.40;;;;;;;1.80;48.63;101650.19;4994265;28;98155;-51
2023/04/06 03:38:37;;;;;;;5.00;3.80;;;;;;;1.78;48.29;101641.69;4992449;28;97467;-52
2023/04/06 03:41:02;;;;;;;4.90;4.13;;;;;;;1.76;48.78;101649.47;4994656;28;97019;-50
2023/04/06 03:43:28;;;;;;;5.43;4.10;;;;;;;1.71;48.56;101655.34;4993373;28;97271;-50
2023/04/06 03:45:53;;;;;;;5.60;4.30;;;;;;;1.73;48.51;101648.34;4993543;28;97100;-49
2023/04/06 03:48:18;;;;;;;8.47;3.70;;;;;;;1.71;48.67;101652.63;4994805;28;97290;-51
2023/04/06 03:50:44;;;;;;;4.17;3.70;;;;;;;1.72;48.68;101659.59;4993419;28;96870;-49
2023/04/06 03:53:10;;;;;;;3.90;3.50;;;;;;;1.70;48.69;101651.09;4994784;28;97445;-49
2023/04/06 03:55:35;;;;;;;6.13;3.90;;;;;;;1.68;48.68;101654.22;4991089;28;96745;-49
2023/04/06 03:58:00;;;;;;;5.20;3.83;;;;;;;1.68;48.89;101648.03;4990409;28;97488;-50
2023/04/06 04:00:26;;;;;;;5.17;3.93;;;;;;;1.66;48.87;101647.66;4995755;28;97020;-50
2023/04/06 04:02:52;;;;;;;4.37;3.97;;;;;;;1.68;48.68;101656.16;4991763;28;97444;-53
2023/04/06 04:05:17;;;;;;;4.17;3.73;;;;;;;1.68;49.06;101648.03;4992880;28;97765;-52
2023/04/06 04:07:42;;;;;;;7.37;4.13;;;;;;;1.66;49.25;101655.81;4993863;28;97630;-48
2023/04/06 04:10:08;;;;;;;4.40;3.47;;;;;;;1.64;49.16;101655.44;4988095;28;97536;-49
2023/04/06 04:12:34;;;;;;;4.73;3.40;;;;;;;1.63;48.93;101648.47;4992009;28;97074;-51
2023/04/06 04:14:59;;;;;;;4.30;3.90;;;;;;;1.61;49.07;101653.53;4992788;28;97214;-48
2023/04/06 04:17:25;;;;;;;5.17;4.40;;;;;;;1.62;49.31;101660.50;4993945;28;97104;-49
2023/04/06 04:19:50;;;;;;;4.97;4.17;;;;;;;1.65;49.36;101654.25;4990781;28;97001;-50
2023/04/06 04:22:15;;;;;;;5.53;4.03;;;;;;;1.67;49.13;101660.03;4994774;28;97105;-48
2023/04/06 04:24:41;;;;;;;4.07;3.60;;;;;;;1.63;49.18;101656.59;4992795;28;97322;-49
2023/04/06 04:27:06;;;;;;;4.60;3.40;;;;;;;1.67;49.36;101652.69;4994315;28;97279;-51
2023/04/06 04:29:31;;;;;;;4.20;3.60;;;;;;;1.65;49.16;101656.97;4994354;28;96897;-49
2023/04/06 04:31:57;;;;;;;4.20;3.80;;;;;;;1.61;49.26;101648.13;4994503;28;97458;-51
2023/04/06 04:34:25;;;;;;;4.93;4.13;;;;;;;1.58;49.60;101646.97;4992399;28;97698;-50
2023/04/06 04:36:52;;;;;;;4.17;3.80;;;;;;;1.56;49.20;101649.31;4992077;28;97220;-50
2023/04/06 04:39:17;;;;;;;6.47;4.00;;;;;;;1.58;49.59;101648.91;4993513;28;99403;-51
2023/04/06 04:41:42;;;;;;;4.40;4.00;;;;;;;1.59;49.54;101650.47;4997886;28;97181;-49
2023/04/06 04:44:08;;;;;;;5.23;3.73;;;;;;;1.60;49.36;101646.56;4996941;28;97506;-49
2023/04/06 04:46:33;;;;;;;5.03;4.53;;;;;;;1.60;49.54;101647.34;5000248;28;97069;-49
2023/04/06 04:48:59;;;;;;;3.63;3.30;;;;;;;1.60;49.70;101657.41;4997538;28;96995;-50
2023/04/06 04:51:24;;;;;;;5.90;3.60;;;;;;;1.63;49.56;101654.69;4998357;28;97023;-49
2023/04/06 04:53:50;;;;;;;3.60;3.30;;;;;;;1.59;49.61;101650.47;4993250;28;96958;-49
2023/04/06 04:56:16;;;;;;;4.03;3.70;;;;;;;1.60;49.38;101658.19;4995201;28;97383;-51
2023/04/06 04:58:41;;;;;;;4.07;3.50;;;;;;;1.61;49.35;101662.44;4995924;28;97363;-49
2023/04/06 05:01:08;;;;;;;4.10;3.70;;;;;;;1.59;49.52;101651.25;4998026;28;97111;-49
2023/04/06 05:03:33;;;;;;;6.27;3.67;;;;;;;1.58;49.62;101662.47;4995423;28;97754;-49
2023/04/06 05:05:59;;;;;;;5.37;4.30;;;;;;;1.57;49.90;101647.41;4998743;28;97830;-51
2023/04/06 05:08:24;;;;;;;3.30;3.00;;;;;;;1.61;49.78;101648.88;4997352;28;97004;-50
2023/04/06 05:10:50;;;;;;;6.00;4.10;;;;;;;1.62;49.81;101669.41;4996081;28;97036;-49
2023/04/06 05:13:16;;;;;;;4.30;3.67;;;;;;;1.63;49.59;101653.91;4993491;28;97718;-50
2023/04/06 05:15:41;;;;;;;4.07;3.67;;;;;;;1.62;49.71;101647.69;4995464;28;97865;-48
2023/04/06 05:18:07;;;;;;;5.63;3.63;;;;;;;1.61;49.56;101648.13;4996465;28;96822;-51
2023/04/06 05:20:34;;;;;;;4.67;3.47;;;;;;;1.61;49.83;101648.88;4998520;28;97020;-50
2023/04/06 05:22:59;;;;;;;5.03;3.87;;;;;;;1.64;49.76;101653.47;4995543;28;96835;-49
2023/04/06 05:25:25;;;;;;;4.40;3.53;;;;;;;1.69;49.89;101653.03;4997141;28;96835;-51
2023/04/06 05:27:51;;;;;;;4.93;3.90;;;;;;;1.73;49.89;101650.28;4995650;28;97120;-49
2023/04/06 05:30:16;;;;;;;3.30;2.93;;;;;;;1.78;49.72;101652.53;4996014;28;97172;-49
2023/04/06 05:32:43;;;;;;;3.23;2.93;;;;;;;1.76;49.91;101652.19;4995391;28;97459;-48
2023/04/06 05:35:08;;;;;;;6.20;3.27;;;;;;;1.78;50.18;101650.59;4994287;28;97230;-50
2023/04/06 05:37:34;;;;;;;7.10;3.50;;;;;;;1.81;50.26;101659.88;4993647;28;97086;-50
2023/04/06 05:40:00;;;;;;;6.40;3.70;;;;;;;1.87;50.24;101658.25;4996201;28;97111;-51
2023/04/06 05:42:26;;;;;;;4.13;3.73;;;;;;;1.92;49.90;101652.38;4993788;28;97192;-49
2023/04/06 05:44:52;;;;;;;4.23;3.63;;;;;;;1.94;49.95;101647.31;4996790;28;97191;-51
2023/04/06 05:47:17;;;;;;;5.07;3.60;;;;;;;1.96;50.04;101651.16;4993916;28;97045;-49
2023/04/06 05:49:43;;;;;;;5.00;3.67;;;;;;;2.02;50.16;101654.16;4996411;28;96801;-49
2023/04/06 05:52:09;;;;;;;4.73;3.57;;;;;;;2.03;50.07;101651.03;4996414;28;97345;-48
2023/04/06 05:54:36;;;;;;;5.33;3.70;;;;;;;2.07;50.12;101651.00;4995163;28;97206;-49
2023/04/06 05:57:04;;;;;;;4.10;3.37;;;;;;;2.12;50.27;101661.38;4997025;28;97054;-50
2023/04/06 05:59:31;;;;;;;5.60;3.10;;;;;;;2.14;50.22;101656.34;4996145;28;97482;-48
2023/04/06 06:01:56;;;;;;;7.33;3.90;;;;;;;2.17;50.17;101652.78;4993737;28;97465;-52
2023/04/06 06:04:22;;;;;;;9.60;4.80;;;;;;;2.22;50.52;101652.31;4994282;28;97113;-49
2023/04/06 06:06:47;;;;;;;8.63;4.27;;;;;;;2.29;50.06;101649.50;4995091;28;97501;-49
2023/04/06 06:09:12;;;;;;;6.60;3.63;;;;;;;2.33;50.27;101652.94;4996917;28;101258;-48
2023/04/06 06:11:38;;;;;;;8.73;5.13;;;;;;;2.42;50.36;101653.19;4996163;28;97473;-49
2023/04/06 06:14:04;;;;;;;10.23;6.03;;;;;;;2.48;50.33;101648.81;4994701;28;97603;-49
2023/04/06 06:16:29;;;;;;;10.37;5.70;;;;;;;2.50;50.23;101649.19;4997134;28;97097;-51
2023/04/06 06:18:55;;;;;;;11.97;6.17;;;;;;;2.58;50.48;101658.00;4994943;28;97107;-49
2023/04/06 06:21:20;;;;;;;6.47;4.30;;;;;;;2.65;50.32;101652.41;4994637;28;96810;-49
2023/04/06 06:23:48;;;;;;;10.53;4.10;;;;;;;2.71;50.17;101646.09;4994988;28;97153;-49
2023/04/06 06:26:13;;;;;;;4.97;4.10;;;;;;;2.78;50.12;101654.13;4996506;28;97212;-48
2023/04/06 06:28:38;;;;;;;3.90;3.20;;;;;;;2.84;50.36;101649.00;4992581;28;97213;-50
2023/04/06 06:31:04;;;;;;;5.37;3.93;;;;;;;2.92;50.09;101653.91;4994214;28;96871;-53
2023/04/06 06:33:29;;;;;;;5.13;3.60;;;;;;;2.99;50.08;101653.03;4995506;28;98468;-49
2023/04/06 06:35:55;;;;;;;3.37;2.70;;;;;;;3.12;50.28;101655.88;4995439;28;97442;-49
2023/04/06 06:38:20;;;;;;;4.13;3.00;;;;;;;3.23;50.26;101659.19;4996328;28;97059;-52
2023/04/06 06:40:46;;;;;;;3.37;3.07;;;;;;;3.32;50.12;101660.16;4995894;28;97163;-48
2023/04/06 06:43:11;;;;;;;3.27;2.80;;;;;;;3.41;50.20;101657.66;4995555;28;97060;-49
2023/04/06 06:45:37;;;;;;;5.60;3.00;;;;;;;3.48;50.05;101652.06;4995704;28;97079;-49
2023/04/06 06:48:02;;;;;;;2.90;2.70;;;;;;;3.57;49.98;101659.66;4992332;28;97056;-49
2023/04/06 06:50:27;;;;;;;3.67;2.90;;;;;;;3.67;50.03;101664.13;4995488;28;97228;-48
2023/04/06 06:52:53;;;;;;;2.80;2.53;;;;;;;3.77;49.91;101653.03;4995411;28;97156;-49
2023/04/06 06:55:21;;;;;;;3.97;3.13;;;;;;;3.87;49.79;101653.25;4991879;28;97421;-50
2023/04/06 06:57:46;;;;;;;4.80;2.70;;;;;;;3.97;49.97;101654.97;4996321;28;97157;-50
2023/04/06 07:00:14;;;;;;;6.03;3.20;;;;;;;4.07;49.77;101649.28;4995870;28;97254;-50
2023/04/06 07:02:39;;;;;;;2.77;2.57;;;;;;;4.17;49.86;101642.81;4993845;28;97241;-53
2023/04/06 07:05:05;;;;;;;3.63;2.80;;;;;;;4.27;49.74;101644.53;4992499;28;96806;-52
2023/04/06 07:07:34;;;;;;;4.23;3.10;;;;;;;4.40;49.61;101650.06;4995554;28;96617;-48
2023/04/06 07:10:00;;;;;;;3.57;2.83;;;;;;;4.51;49.43;101647.88;4994122;28;97220;-52
2023/04/06 07:12:26;;;;;;;2.97;2.57;;;;;;;4.60;49.45;101644.53;4994789;28;97059;-50
2023/04/06 07:14:52;;;;;;;3.00;2.63;;;;;;;4.68;49.62;101641.22;4993331;28;96822;-48
2023/04/06 07:17:18;;;;;;;6.83;2.50;;;;;;;4.78;49.78;101636.69;4997174;28;97537;-49
2023/04/06 07:19:43;;;;;;;2.60;2.40;;;;;;;4.93;49.52;101632.41;4995606;28;97170;-48
2023/04/06 07:22:09;;;;;;;3.47;3.17;;;;;;;5.10;49.60;101642.09;4995698;28;97847;-52
2023/04/06 07:24:34;;;;;;;3.73;2.83;;;;;;;5.21;49.26;101643.34;4997165;28;97219;-50
2023/04/06 07:27:02;;;;;;;3.07;2.70;;;;;;;5.38;49.28;101651.44;4995889;28;97938;-49
2023/04/06 07:29:28;;;;;;;5.67;2.60;;;;;;;5.53;48.89;101649.84;4993103;28;98532;-49
2023/04/06 07:31:54;;;;;;;3.63;2.87;;;;;;;5.66;49.11;101645.97;4996135;28;97201;-49
2023/04/06 07:34:20;;;;;;;5.87;3.67;;;;;;;5.80;49.00;101640.09;4991956;28;97199;-52
2023/04/06 07:36:45;;;;;;;8.37;2.90;;;;;;;5.96;48.76;101637.28;4994460;28;96756;-49
2023/04/06 07:39:11;;;;;;;3.10;2.90;;;;;;;6.13;48.50;101639.94;4992510;28;97553;-48
2023/04/06 07:41:36;;;;;;;2.80;2.60;;;;;;;6.27;48.67;101634.78;4993420;28;97760;-53
2023/04/06 07:44:03;;;;;;;2.43;2.23;;;;;;;6.42;48.58;101640.59;4990573;28;97442;-48
2023/04/06 07:46:28;;;;;;;3.87;2.90;;;;;;;6.58;48.32;101627.53;4993969;28;97560;-50
2023/04/06 07:48:54;;;;;;;3.97;2.90;;;;;;;6.73;48.33;101638.75;4993512;28;97248;-50
2023/04/06 07:51:19;;;;;;;12.00;3.27;;;;;;;6.85;48.27;101637.97;4996060;28;97248;-50
2023/04/06 07:53:45;;;;;;;5.00;3.40;;;;;;;6.97;48.18;101636.41;4993824;28;96664;-49
2023/04/06 07:56:11;;;;;;;3.03;2.83;;;;;;;7.13;48.42;101628.78;4992515;28;97355;-48
2023/04/06 07:58:37;;;;;;;2.80;2.57;;;;;;;7.29;48.05;101636.06;4991948;28;98667;-52
2023/04/06 08:01:02;;;;;;;4.43;2.87;;;;;;;7.43;47.82;101635.53;4994009;28;97131;-49
2023/04/06 08:03:28;;;;;;;3.47;2.83;;;;;;;7.59;47.26;101629.84;4991559;28;96958;-52
2023/04/06 08:05:53;;;;;;;3.57;2.93;;;;;;;7.74;47.19;101635.56;4994608;28;97100;-51
2023/04/06 08:08:21;;;;;;;2.73;2.40;;;;;;;7.91;46.90;101642.34;4991397;28;97091;-51
2023/04/06 08:10:46;;;;;;;2.87;2.57;;;;;;;8.07;47.09;101634.66;4994967;28;97119;-50
2023/04/06 08:13:12;;;;;;;4.87;3.00;;;;;;;8.20;46.66;101632.59;4994528;28;97180;-49
2023/04/06 08:15:37;;;;;;;3.10;2.90;;;;;;;8.36;46.61;101633.56;4997746;28;97236;-50
2023/04/06 08:18:03;;;;;;;3.23;2.97;;;;;;;8.53;46.40;101627.38;4999459;28;97009;-54
2023/04/06 08:20:28;;;;;;;4.23;3.10;;;;;;;8.68;46.54;101631.06;5000086;28;97228;-50
2023/04/06 08:22:54;;;;;;;3.20;2.90;;;;;;;8.84;46.17;101633.53;4995041;28;97216;-49
2023/04/06 08:25:19;;;;;;;3.30;2.33;;;;;;;9.04;46.07;101638.56;4997216;28;97193;-51
2023/04/06 08:27:44;;;;;;;2.67;2.53;;;;;;;9.23;45.92;101637.34;4995509;28;97088;-50
2023/04/06 08:30:10;;;;;;;3.77;2.97;;;;;;;9.42;45.73;101633.34;4997064;28;99219;-50
2023/04/06 08:32:35;;;;;;;2.93;2.17;;;;;;;9.63;45.70;101634.38;4998792;28;96651;-50
2023/04/06 08:35:01;;;;;;;3.60;2.77;;;;;;;9.83;45.58;101629.13;4996132;28;96834;-49
2023/04/06 08:37:27;;;;;;;4.07;2.17;;;;;;;10.05;45.41;101637.13;4997995;28;97488;-52
2023/04/06 08:39:52;;;;;;;8.50;3.47;;;;;;;10.28;45.16;101626.22;4998013;28;97042;-51
2023/04/06 08:42:21;;;;;;;3.80;3.17;;;;;;;10.53;44.48;101633.25;4995610;28;96686;-53
2023/04/06 08:44:50;;;;;;;3.70;2.47;;;;;;;10.80;44.70;101643.34;4992758;28;97436;-52
2023/04/06 08:47:16;;;;;;;2.93;2.60;;;;;;;11.03;44.25;101624.03;4995770;28;97408;-53
2023/04/06 08:49:43;;;;;;;2.70;2.50;;;;;;;11.27;44.22;101621.22;4996952;28;96670;-52
2023/04/06 08:52:10;;;;;;;2.90;2.70;;;;;;;11.54;44.08;101626.47;4994071;28;97444;-52
2023/04/06 08:54:37;;;;;;;3.37;2.87;;;;;;;11.78;43.71;101621.66;4999526;28;96766;-51
2023/04/06 08:57:04;;;;;;;3.33;3.03;;;;;;;12.01;43.58;101609.00;4995730;28;97440;-54
2023/04/06 08:59:30;;;;;;;2.47;2.27;;;;;;;12.26;43.42;101622.13;4996563;28;97058;-52
2023/04/06 09:01:56;;;;;;;3.73;3.33;;;;;;;12.51;43.04;101613.22;4996232;28;96934;-50
2023/04/06 09:04:21;;;;;;;3.63;2.67;;;;;;;12.72;42.84;101608.44;4995363;28;97166;-51
2023/04/06 09:06:47;;;;;;;8.60;3.63;;;;;;;12.94;42.46;101611.47;4995124;28;97297;-53
2023/04/06 09:09:12;;;;;;;4.43;2.90;;;;;;;13.11;42.52;101615.19;4996214;28;97209;-51
2023/04/06 09:11:49;;;;;;;3.00;2.77;;;;;;;13.35;40.67;101617.69;4996517;28;97295;-50
2023/04/06 09:14:16;;;;;;;3.03;2.73;;;;;;;13.54;41.92;101619.63;4997923;28;97181;-52
2023/04/06 09:16:44;;;;;;;2.70;2.50;;;;;;;13.67;41.69;101616.50;4995226;28;96790;-53
2023/04/06 09:19:10;;;;;;;3.53;3.23;;;;;;;13.77;41.33;101614.31;4996164;28;97142;-49
2023/04/06 09:21:37;;;;;;;4.73;2.77;;;;;;;13.84;41.25;101614.63;4994678;28;96914;-52
2023/04/06 09:24:03;;;;;;;3.93;3.47;;;;;;;13.95;41.28;101611.19;4995453;28;97037;-51
2023/04/06 09:26:29;;;;;;;3.70;2.60;;;;;;;14.08;41.08;101606.00;4997716;28;97205;-50
2023/04/06 09:28:57;;;;;;;3.83;3.53;;;;;;;14.24;40.87;101608.13;4994460;28;97015;-49
2023/04/06 09:31:25;;;;;;;2.93;2.60;;;;;;;14.33;40.63;101607.19;4996904;28;97304;-51
2023/04/06 09:33:51;;;;;;;3.60;3.30;;;;;;;14.46;40.60;101607.50;4995063;28;97072;-51
2023/04/06 09:36:18;;;;;;;3.60;3.30;;;;;;;14.52;40.35;101611.81;4992973;28;97999;-51
2023/04/06 09:38:53;;;;;;;2.93;2.67;;;;;;;14.64;38.72;101604.28;4993345;28;97430;-53
2023/04/06 09:41:32;;;;;;;4.83;3.43;;;;;;;14.73;38.37;101606.84;4995110;28;97423;-53
2023/04/06 09:44:13;;;;;;;3.50;3.20;;;;;;;14.78;36.67;101608.91;4994065;28;97216;-52
2023/04/06 09:46:43;;;;;;;3.00;2.80;;;;;;;14.82;38.81;101607.41;4997014;28;97438;-52
2023/04/06 09:49:09;;;;;;;4.03;3.63;;;;;;;14.88;39.42;101597.09;4995884;28;97971;-51
2023/04/06 09:51:49;;;;;;;3.30;3.00;;;;;;;14.88;38.92;101610.94;4996522;28;97530;-54
2023/04/06 09:54:22;;;;;;;6.43;3.80;;;;;;;14.93;39.21;101598.38;4994004;28;97112;-52
2023/04/06 09:57:07;;;;;;;5.53;3.20;;;;;;;14.86;37.73;101599.59;4999224;28;97563;-53
2023/04/06 09:59:57;;;;;;;3.73;3.07;;;;;;;14.87;37.20;101586.50;4994829;28;97327;-52
2023/04/06 10:02:44;;;;;;;3.17;2.87;;;;;;;14.95;38.95;101593.09;4995073;28;97210;-52
2023/04/06 10:05:19;;;;;;;5.53;3.10;;;;;;;14.95;37.49;101582.75;4993696;28;97465;-50
2023/04/06 10:07:45;;;;;;;5.10;3.50;;;;;;;15.00;39.24;101579.22;4998129;28;97131;-53
2023/04/06 10:10:12;;;;;;;3.23;3.03;;;;;;;15.14;39.16;101579.50;4995290;28;98725;-50
2023/04/06 10:12:39;;;;;;;3.57;3.17;;;;;;;15.19;38.94;101581.53;4996449;28;96892;-52
2023/04/06 10:15:06;;;;;;;3.93;3.33;;;;;;;15.19;38.81;101579.53;4995605;28;96858;-55
2023/04/06 10:17:31;;;;;;;3.63;3.33;;;;;;;15.17;38.84;101575.75;4999673;28;99322;-50
2023/04/06 10:20:06;;;;;;;4.33;3.80;;;;;;;15.21;37.68;101576.25;4993328;28;97142;-50
2023/04/06 10:22:52;;;;;;;4.80;3.37;;;;;;;15.24;36.22;101573.25;4992766;28;96807;-50
2023/04/06 10:25:27;;;;;;;3.33;2.97;;;;;;;15.33;37.07;101581.28;4993857;28;97136;-52
2023/04/06 10:27:59;;;;;;;4.47;3.57;;;;;;;15.41;37.66;101576.03;4996596;28;97218;-56
2023/04/06 10:30:25;;;;;;;3.27;3.00;;;;;;;15.43;38.22;101570.72;4992912;28;97624;-51
2023/04/06 10:32:51;;;;;;;3.17;2.97;;;;;;;15.42;38.29;101572.75;4993377;28;96856;-51
2023/04/06 10:35:16;;;;;;;3.73;3.43;;;;;;;15.50;38.43;101567.50;4994015;28;96910;-50
2023/04/06 10:37:52;;;;;;;5.43;3.33;;;;;;;15.59;35.82;101562.47;4993296;28;97720;-50
2023/04/06 10:40:19;;;;;;;3.90;3.50;;;;;;;15.64;37.91;101564.44;4993017;28;97135;-53
2023/04/06 10:42:44;;;;;;;3.90;3.50;;;;;;;15.77;37.84;101566.72;4997525;28;96974;-50
2023/04/06 10:45:20;;;;;;;7.63;3.17;;;;;;;15.88;36.33;101558.38;4993691;28;97208;-50
2023/04/06 10:47:46;;;;;;;8.03;3.20;;;;;;;16.02;37.31;101567.69;4996928;28;97082;-52
2023/04/06 10:50:15;;;;;;;3.63;3.33;;;;;;;16.08;36.92;101568.41;4995683;28;97690;-50
2023/04/06 10:52:41;;;;;;;3.90;3.60;;;;;;;16.12;36.96;101558.56;4992499;28;96857;-49
2023/04/06 10:55:10;;;;;;;5.37;3.37;;;;;;;16.21;36.83;101561.06;4996564;28;97276;-51
2023/04/06 10:57:36;;;;;;;4.20;3.80;;;;;;;16.31;36.49;101564.34;4994161;28;97844;-51
2023/04/06 11:00:04;;;;;;;4.47;3.00;;;;;;;16.48;36.53;101557.47;4994519;28;97021;-49
2023/04/06 11:02:31;;;;;;;3.60;3.30;;;;;;;16.63;36.43;101568.28;4992894;28;97285;-53
2023/04/06 11:04:58;;;;;;;4.03;3.60;;;;;;;16.71;36.39;101557.38;4994119;28;97266;-53
2023/04/06 11:07:25;;;;;;;3.93;3.37;;;;;;;16.86;36.31;101555.03;4996061;28;97113;-51
2023/04/06 11:09:51;;;;;;;6.87;3.73;;;;;;;16.99;36.17;101546.88;4991298;28;96618;-50
2023/04/06 11:12:27;;;;;;;4.63;3.70;;;;;;;17.12;34.56;101553.31;4995053;28;97080;-49
2023/04/06 11:15:04;;;;;;;3.33;3.03;;;;;;;17.32;35.70;101554.94;4993720;28;96830;-51
2023/04/06 11:17:30;;;;;;;4.63;3.60;;;;;;;17.44;35.54;101553.59;4994613;28;97035;-51
2023/04/06 11:19:57;;;;;;;3.40;3.10;;;;;;;17.58;35.33;101549.72;4994363;28;96968;-50
2023/04/06 11:22:23;;;;;;;3.40;3.10;;;;;;;17.74;35.32;101551.59;4993317;28;97069;-50
2023/04/06 11:24:49;;;;;;;3.90;3.57;;;;;;;17.83;35.09;101547.72;4994024;28;97326;-50
2023/04/06 11:27:16;;;;;;;3.90;3.60;;;;;;;17.90;34.88;101547.16;4995420;28;97395;-51